MY EKSV-EKSV

Flight info

Callsign MY
Flight time 0h 15m
Altitude 3000
Route KEMEG
Aircraft GLID/L-SFG/C

Departure

Time 2026-04-24 19:09
Airport Skive Airport (EKSV)

Arrival

Time 2026-04-24 19:25
Airport Skive Airport (EKSV)
Time Latitude Longitude Altitude Speed Heading
2026-04-24 18:54 56.17707 9.46281 6484 ft 77 kts 200°
2026-04-24 18:55 56.16653 9.45981 6415 ft 76 kts 203°
2026-04-24 18:55 56.16136 9.45770 6368 ft 77 kts 203°
2026-04-24 18:55 56.15599 9.45663 6335 ft 78 kts 195°
2026-04-24 18:56 56.15052 9.45602 6300 ft 79 kts 194°
2026-04-24 18:56 56.14503 9.45572 6259 ft 80 kts 192°
2026-04-24 18:56 56.13952 9.45550 6225 ft 79 kts 193°
2026-04-24 18:56 56.13401 9.45522 6192 ft 79 kts 193°
2026-04-24 18:57 56.12851 9.45505 6156 ft 79 kts 191°
2026-04-24 18:57 56.12310 9.45455 6132 ft 75 kts 198°
2026-04-24 18:57 56.11784 9.45308 6074 ft 78 kts 200°
2026-04-24 18:57 56.11256 9.45158 6046 ft 77 kts 200°
2026-04-24 18:58 56.10906 9.45059 6017 ft 77 kts 200°
2026-04-24 18:58 56.10377 9.44912 5978 ft 77 kts 200°
2026-04-24 18:58 56.09859 9.44736 5951 ft 75 kts 205°
2026-04-24 18:58 56.09372 9.44461 5926 ft 71 kts 212°
2026-04-24 18:59 56.08878 9.44320 5882 ft 77 kts 197°
2026-04-24 18:59 56.08317 9.44215 5826 ft 79 kts 198°
2026-04-24 18:59 56.07801 9.44076 5817 ft 74 kts 202°
2026-04-24 18:59 56.07280 9.43862 5752 ft 78 kts 202°
2026-04-24 19:00 56.06766 9.43722 5765 ft 73 kts 199°
2026-04-24 19:00 56.06252 9.43561 5682 ft 77 kts 204°
2026-04-24 19:00 56.05739 9.43358 5663 ft 75 kts 203°
2026-04-24 19:00 56.05222 9.43159 5620 ft 75 kts 203°
2026-04-24 19:01 56.04731 9.42917 5584 ft 67 kts 227°
2026-04-24 19:01 56.04816 9.42404 5637 ft 65 kts 347°
2026-04-24 19:01 56.05330 9.42635 5450 ft 93 kts
2026-04-24 19:01 56.05899 9.43027 5501 ft 81 kts 11°
2026-04-24 19:02 56.06444 9.43396 5437 ft 84 kts
2026-04-24 19:02 56.07008 9.43722 5372 ft 86 kts
2026-04-24 19:02 56.07580 9.43908 5360 ft 81 kts 356°
2026-04-24 19:02 56.08157 9.44050 5295 ft 84 kts 357°
2026-04-24 19:03 56.08726 9.44191 5260 ft 83 kts 357°
2026-04-24 19:03 56.09305 9.44338 5231 ft 82 kts 357°
2026-04-24 19:03 56.09876 9.44492 5175 ft 85 kts 358°
2026-04-24 19:03 56.10448 9.44651 5149 ft 83 kts 358°
2026-04-24 19:04 56.11024 9.44812 5101 ft 83 kts 358°
2026-04-24 19:04 56.11596 9.44977 5060 ft 84 kts 358°
2026-04-24 19:04 56.12169 9.45135 5030 ft 83 kts 357°
2026-04-24 19:04 56.12741 9.45279 4985 ft 83 kts 356°
2026-04-24 19:05 56.13303 9.45409 4959 ft 82 kts 356°
2026-04-24 19:05 56.13875 9.45571 4925 ft 84 kts
2026-04-24 19:05 56.14446 9.45812 4882 ft 85 kts
2026-04-24 19:05 56.15014 9.46104 4853 ft 85 kts
2026-04-24 19:06 56.15575 9.46469 4810 ft 86 kts
2026-04-24 19:06 56.16134 9.46644 4779 ft 80 kts 352°
2026-04-24 19:06 56.16698 9.46639 4725 ft 79 kts 345°
2026-04-24 19:06 56.17240 9.46568 4679 ft 79 kts 345°
2026-04-24 19:07 56.17792 9.46528 4651 ft 79 kts 348°
2026-04-24 19:07 56.18351 9.46532 4613 ft 79 kts 346°
2026-04-24 19:07 56.18898 9.46486 4564 ft 80 kts 345°
2026-04-24 19:07 56.19448 9.46419 4536 ft 78 kts 344°
2026-04-24 19:08 56.19996 9.46339 4481 ft 79 kts 343°
2026-04-24 19:08 56.20533 9.46260 4464 ft 76 kts 344°
2026-04-24 19:08 56.21073 9.46220 4435 ft 77 kts 349°
2026-04-24 19:08 56.21478 9.45877 4414 ft 73 kts 347°
2026-04-24 19:09 56.21916 9.45717 4439 ft 62 kts 332°
2026-04-24 19:09 56.22351 9.45567 4395 ft 67 kts 339°
2026-04-24 19:09 56.22826 9.45460 4356 ft 68 kts 340°
2026-04-24 19:09 56.23293 9.45329 4328 ft 68 kts 338°
2026-04-24 19:10 56.23773 9.45241 4280 ft 72 kts 347°
2026-04-24 19:10 56.24273 9.45167 4210 ft 75 kts 341°
2026-04-24 19:10 56.24818 9.45048 4147 ft 79 kts 342°
2026-04-24 19:10 56.25352 9.44957 4122 ft 77 kts 343°
2026-04-24 19:11 56.25877 9.44899 4115 ft 70 kts 353°
2026-04-24 19:11 56.26330 9.45013 4118 ft 66 kts 353°
2026-04-24 19:11 56.26806 9.45057 4049 ft 70 kts 351°
2026-04-24 19:11 56.27295 9.45140 3983 ft 76 kts 352°
2026-04-24 19:12 56.27840 9.45233 3911 ft 81 kts 354°
2026-04-24 19:12 56.28393 9.45282 3881 ft 79 kts 350°
2026-04-24 19:12 56.28934 9.45391 3850 ft 79 kts 353°
2026-04-24 19:12 56.29546 9.45466 3575 ft 102 kts 353°
2026-04-24 19:13 56.30053 9.45474 3395 ft 115 kts 352°
2026-04-24 19:13 56.31144 9.45485 3156 ft 120 kts 353°
2026-04-24 19:13 56.31970 9.45405 3029 ft 116 kts 346°
2026-04-24 19:13 56.32766 9.45188 2866 ft 116 kts 342°
2026-04-24 19:14 56.33561 9.44910 2729 ft 115 kts 341°
2026-04-24 19:14 56.34345 9.44627 2579 ft 115 kts 341°
2026-04-24 19:14 56.35136 9.44359 2436 ft 116 kts 342°
2026-04-24 19:14 56.35921 9.44096 2338 ft 113 kts 343°
2026-04-24 19:15 56.36704 9.43904 2208 ft 113 kts 344°
2026-04-24 19:15 56.37484 9.43688 2065 ft 114 kts 343°
2026-04-24 19:15 56.38257 9.43444 1927 ft 113 kts 341°
2026-04-24 19:15 56.39014 9.43165 1824 ft 110 kts 341°
2026-04-24 19:16 56.40251 9.41982 1722 ft 90 kts 320°
2026-04-24 19:16 56.40759 9.41430 1678 ft 89 kts 321°
2026-04-24 19:16 56.41317 9.40750 1644 ft 101 kts 318°
2026-04-24 19:17 56.41867 9.40022 1781 ft 95 kts 311°
2026-04-24 19:17 56.42342 9.39231 1920 ft 91 kts 311°
2026-04-24 19:17 56.42804 9.38479 2047 ft 89 kts 310°
2026-04-24 19:17 56.43264 9.37731 2150 ft 89 kts 311°
2026-04-24 19:18 56.43682 9.37094 2071 ft 94 kts 312°
2026-04-24 19:18 56.44191 9.36310 2152 ft 96 kts 312°
2026-04-24 19:18 56.44700 9.35570 2308 ft 92 kts 316°
2026-04-24 19:18 56.45162 9.34894 2505 ft 82 kts 312°
2026-04-24 19:19 56.45575 9.34215 2649 ft 76 kts 309°
2026-04-24 19:19 56.45925 9.33620 2786 ft 74 kts 308°
2026-04-24 19:19 56.46272 9.32885 2847 ft 80 kts 302°
2026-04-24 19:19 56.46648 9.32057 2862 ft 90 kts 304°
2026-04-24 19:20 56.47048 9.31227 3021 ft 84 kts 306°
2026-04-24 19:20 56.47447 9.30465 3140 ft 85 kts 308°
2026-04-24 19:20 56.47888 9.29670 3202 ft 90 kts 309°
2026-04-24 19:20 56.48316 9.28913 3370 ft 85 kts 309°
2026-04-24 19:21 56.48736 9.28155 3497 ft 84 kts 307°
2026-04-24 19:21 56.49099 9.27510 3656 ft 65 kts 308°
2026-04-24 19:21 56.49495 9.26823 3444 ft 87 kts 309°
2026-04-24 19:21 56.49920 9.26066 3437 ft 38 kts 312°
2026-04-24 19:22 56.50026 9.25965 3170 ft 73 kts 308°
2026-04-24 19:22 56.50669 9.24941 2793 ft 103 kts 310°
2026-04-24 19:22 56.51152 9.24027 2496 ft 94 kts 307°
2026-04-24 19:22 56.51556 9.23236 2156 ft 81 kts 306°
2026-04-24 19:23 56.51920 9.22534 1802 ft 68 kts 306°
2026-04-24 19:23 56.52273 9.21871 1429 ft 77 kts 308°
2026-04-24 19:23 56.52637 9.21254 1115 ft 68 kts 309°
2026-04-24 19:23 56.53005 9.20639 806 ft 81 kts 310°
2026-04-24 19:24 56.53399 9.19976 590 ft 67 kts 309°
2026-04-24 19:24 56.53746 9.19448 367 ft 72 kts 311°
2026-04-24 19:24 56.54091 9.18857 293 ft 62 kts 308°
2026-04-24 19:24 56.54429 9.18307 110 ft 69 kts 314°
2026-04-24 19:25 56.54736 9.17824 72 ft 46 kts 315°
2026-04-24 19:25 56.54815 9.17698 73 ft 0 kts 311°
2026-04-24 19:26 56.54720 9.18060 79 ft 0 kts 60°
2026-04-24 19:26 56.54738 9.18135 75 ft 0 kts 268°